Kenduskeag, Maine
Current Conditions -  °F | °C
As of 12:53 PM on Friday 19 Dec 2014 (Local Time) from KBGR Reporting Station
Broken Clouds Broken Clouds  
Wind Chill: 20°   Ceiling: 2500
Heat Index: 30°   Visibility: 10mi
Dew Point: 22°   Wind: 14mph
Humidity: 72%   Direction: 310°NW
Pressure: 29.89"   Gusts: NA
Location:  44.92°N, 68.93°W
Report Text: KBGR 191753Z 31012KT 10SM BKN025 M01/M06 A2989 RMK AO2 SLP124 4/003 T10111056 11011 21022 55002
Loading
Personal Weather Stations






























Interactive Weather Map New forecast layout! Learn more

10-Day Weather Forecast

Advertisements
Track Severe Weather on mobile